Time;durP1;ratioP1;P1;durP2;ratioP2;P2;SDS_P1;SDS_P2;PMS_P1;PMS_P2;Temp;Humidity;BMP_temperature;BMP_pressure;BME280_temperature;BME280_humidity;BME280_pressure;Samples;Min_cycle;Max_cycle;Signal;HPM_P1;HPM_P2
2022/10/29 00:00:08;;;;;;;;;;;;;;;13.32;100.00;100748.81;3056772;19;20326;-56
2022/10/29 00:01:09;;;;;;;;;;;;;;;13.31;100.00;100749.78;3056798;19;19945;-55
2022/10/29 00:02:14;;;;;;;;;;;;;;;13.30;100.00;100742.69;3057145;19;20267;-57
2022/10/29 00:03:16;;;;;;;;;;;;;;;13.30;100.00;100748.06;3056990;19;20214;-57
2022/10/29 00:04:20;;;;;;;;;;;;;;;13.28;100.00;100744.63;3057365;19;19946;-57
2022/10/29 00:05:22;;;;;;;;;;;;;;;13.28;100.00;100741.94;3057213;19;19925;-56
2022/10/29 00:06:27;;;;;;;;;;;;;;;13.28;100.00;100741.94;3057182;19;19926;-58
2022/10/29 00:07:28;;;;;;;;;;;;;;;13.26;100.00;100738.53;3056856;19;20310;-56
2022/10/29 00:08:34;;;;;;;;;;;;;;;13.26;100.00;100741.22;3057182;19;19934;-56
2022/10/29 00:09:35;;;;;;;;;;;;;;;13.25;100.00;100744.84;3057122;19;19926;-58
2022/10/29 00:10:40;;;;;;;;;;;;;;;13.17;100.00;100720.38;3057259;19;19989;-56
2022/10/29 00:11:42;;;;;;;;;;;;;;;13.23;100.00;100744.09;3056846;19;20334;-57
2022/10/29 00:12:46;;;;;;;;;;;;;;;13.16;100.00;100729.38;3057148;19;19919;-56
2022/10/29 00:13:51;;;;;;;;;;;;;;;13.19;100.00;100739.88;3057252;19;19919;-57
2022/10/29 00:14:55;;;;;;;;;;;;;;;13.18;100.00;100740.00;3056581;19;19915;-57
2022/10/29 00:15:57;;;;;;;;;;;;;;;13.17;100.00;100740.94;3057036;19;20236;-57
2022/10/29 00:17:02;;;;;;;;;;;;;;;13.14;100.00;100741.16;3057059;19;19932;-57
2022/10/29 00:18:03;;;;;;;;;;;;;;;13.11;100.00;100736.00;3056589;19;19930;-55
2022/10/29 00:19:08;;;;;;;;;;;;;;;13.10;100.00;100739.63;3056280;19;19919;-56
2022/10/29 00:20:10;;;;;;;;;;;;;;;13.07;100.00;100735.34;3057227;19;20401;-58
2022/10/29 00:21:15;;;;;;;;;;;;;;;13.05;100.00;100731.91;3056744;19;19914;-57
2022/10/29 00:22:17;;;;;;;;;;;;;;;13.03;100.00;100732.97;3056812;19;19923;-56
2022/10/29 00:23:21;;;;;;;;;;;;;;;13.00;100.00;100736.72;3056920;19;20007;-56
2022/10/29 00:24:23;;;;;;;;;;;;;;;12.99;100.00;100737.69;3057015;19;19915;-56
2022/10/29 00:25:27;;;;;;;;;;;;;;;12.97;100.00;100737.78;3056754;19;19926;-56
2022/10/29 00:26:29;;;;;;;;;;;;;;;12.94;100.00;100739.81;3057115;19;19940;-56
2022/10/29 00:27:34;;;;;;;;;;;;;;;12.90;100.00;100732.94;3056695;19;20295;-56
2022/10/29 00:28:35;;;;;;;;;;;;;;;12.88;100.00;100733.06;3056988;19;20337;-56
2022/10/29 00:29:40;;;;;;;;;;;;;;;12.85;100.00;100735.06;3056472;19;19914;-57
2022/10/29 00:30:42;;;;;;;;;;;;;;;12.83;100.00;100737.00;3056934;19;19982;-55
2022/10/29 00:31:46;;;;;;;;;;;;;;;12.79;100.00;100735.50;3056755;19;19919;-56
2022/10/29 00:32:48;;;;;;;;;;;;;;;12.79;100.00;100735.50;3056780;19;19949;-57
2022/10/29 00:33:53;;;;;;;;;;;;;;;12.75;100.00;100740.19;3056946;19;20337;-56
2022/10/29 00:34:54;;;;;;;;;;;;;;;12.73;100.00;100735.88;3056264;19;19922;-55
2022/10/29 00:36:00;;;;;;;;;;;;;;;12.71;100.00;100735.13;3056642;19;19926;-57
2022/10/29 00:37:02;;;;;;;;;;;;;;;12.68;100.00;100738.03;3056756;19;19941;-56
2022/10/29 00:38:06;;;;;;;;;;;;;;;12.65;100.00;100732.88;3056610;19;19926;-57
2022/10/29 00:39:11;;;;;;;;;;;;;;;12.64;100.00;100729.34;3055744;19;19938;-57
2022/10/29 00:40:15;;;;;;;;;;;;;;;12.62;100.00;100724.06;3055315;19;19944;-57
2022/10/29 00:41:19;;;;;;;;;;;;;;;12.60;100.00;100731.34;3055910;19;19930;-56
2022/10/29 00:42:24;;;;;;;;;;;;;;;12.59;100.00;100734.13;3055658;19;19918;-57
2022/10/29 00:43:26;;;;;;;;;;;;;;;12.58;100.00;100733.25;3055992;19;20297;-56
2022/10/29 00:44:34;;;;;;;;;;;;;;;12.57;100.00;100730.69;3055529;19;20373;-56
2022/10/29 00:45:35;;;;;;;;;;;;;;;12.55;100.00;100728.13;3056888;19;19986;-57
2022/10/29 00:46:40;;;;;;;;;;;;;;;12.53;100.00;100721.16;3055739;19;19946;-56
2022/10/29 00:47:42;;;;;;;;;;;;;;;12.52;100.00;100722.97;3055100;19;19941;-58
2022/10/29 00:48:47;;;;;;;;;;;;;;;12.50;100.00;100724.88;3055669;19;19922;-56
2022/10/29 00:49:50;;;;;;;;;;;;;;;12.49;100.00;100723.16;3055926;19;19923;-55
2022/10/29 00:50:55;;;;;;;;;;;;;;;12.48;100.00;100725.94;3055407;19;19915;-56
2022/10/29 00:51:57;;;;;;;;;;;;;;;12.47;100.00;100722.41;3055838;19;19922;-56
2022/10/29 00:53:02;;;;;;;;;;;;;;;12.46;100.00;100712.66;3056277;19;19915;-55
2022/10/29 00:54:05;;;;;;;;;;;;;;;12.45;100.00;100721.63;3055873;19;19931;-57
2022/10/29 00:55:10;;;;;;;;;;;;;;;12.44;100.00;100719.91;3054617;19;19915;-56
2022/10/29 00:56:11;;;;;;;;;;;;;;;12.44;100.00;100719.91;3055643;19;19915;-57
2022/10/29 00:57:17;;;;;;;;;;;;;;;12.44;100.00;100709.22;3055949;19;19922;-56
2022/10/29 00:58:19;;;;;;;;;;;;;;;12.45;100.00;100710.06;3056496;19;20321;-56
2022/10/29 00:59:23;;;;;;;;;;;;;;;12.44;100.00;100698.50;3056087;19;19926;-56
2022/10/29 01:00:25;;;;;;;;;;;;;;;12.43;100.00;100706.66;3056188;19;20034;-55
2022/10/29 01:01:29;;;;;;;;;;;;;;;12.43;100.00;100702.16;3056302;19;19915;-57
2022/10/29 01:02:31;;;;;;;;;;;;;;;12.43;100.00;100696.81;3056203;19;19964;-55
2022/10/29 01:03:36;;;;;;;;;;;;;;;12.44;100.00;100697.66;3053419;19;20473;-57
2022/10/29 01:04:38;;;;;;;;;;;;;;;12.45;100.00;100704.72;3054782;19;19925;-57
2022/10/29 01:05:42;;;;;;;;;;;;;;;12.42;100.00;100692.41;3056198;19;19945;-55
2022/10/29 01:06:45;;;;;;;;;;;;;;;12.43;100.00;100702.16;3055628;19;20322;-57
2022/10/29 01:07:50;;;;;;;;;;;;;;;12.42;100.00;100697.78;3055402;19;20013;-56
2022/10/29 01:08:52;;;;;;;;;;;;;;;12.43;100.00;100701.31;3056706;19;20030;-56
2022/10/29 01:09:57;;;;;;;;;;;;;;;12.40;100.00;100699.69;3056519;19;19922;-56
2022/10/29 01:11:02;;;;;;;;;;;;;;;12.39;100.00;100705.13;3055751;19;19926;-56
2022/10/29 01:12:15;;;;;;;;;;;;;;;12.38;100.00;100709.63;3055235;19;19922;-56
2022/10/29 01:13:20;;;;;;;;;;;;;;;12.38;100.00;100708.78;3055092;19;19923;-57
2022/10/29 01:14:29;;;;;;;;;;;;;;;12.36;100.00;100716.91;3056552;19;19923;-57
2022/10/29 01:15:51;;;;;;;;;;;;;;;12.37;100.00;100710.59;3055019;19;19923;-57
2022/10/29 01:16:55;;;;;;;;;;;;;;;12.39;100.00;100711.34;3055179;19;19915;-56
2022/10/29 01:18:08;;;;;;;;;;;;;;;12.40;100.00;100713.06;3055161;19;19986;-57
2022/10/29 01:19:10;;;;;;;;;;;;;;;12.41;100.00;100704.09;3056467;19;19923;-56
2022/10/29 01:20:20;;;;;;;;;;;;;;;12.42;100.00;100716.50;3055243;19;20299;-55
2022/10/29 01:21:54;;;;;;;;;;;;;;;12.44;100.00;100721.72;3055380;19;19942;-56
2022/10/29 01:23:11;;;;;;;;;;;;;;;12.44;100.00;100711.88;3054881;19;19919;-56
2022/10/29 01:24:34;;;;;;;;;;;;;;;12.45;100.00;100721.63;3054636;19;19926;-56
2022/10/29 01:25:54;;;;;;;;;;;;;;;12.46;100.00;100719.81;3055439;19;20353;-55
2022/10/29 01:27:17;;;;;;;;;;;;;;;12.45;100.00;100721.63;3056387;19;19998;-56
2022/10/29 01:28:37;;;;;;;;;;;;;;;12.47;100.00;100714.38;3056347;19;19939;-55
2022/10/29 01:29:41;;;;;;;;;;;;;;;12.48;100.00;100713.41;3056312;19;19922;-56
2022/10/29 01:30:57;;;;;;;;;;;;;;;12.50;100.00;100719.53;3056167;19;19934;-56
2022/10/29 01:32:10;;;;;;;;;;;;;;;12.50;100.00;100714.19;3055406;19;19938;-57
2022/10/29 01:33:22;;;;;;;;;;;;;;;12.50;100.00;100714.19;3055565;19;19934;-57
2022/10/29 01:34:26;;;;;;;;;;;;;;;12.50;100.00;100711.50;3055858;19;19918;-57
2022/10/29 01:35:49;;;;;;;;;;;;;;;12.49;100.00;100716.94;3055480;19;19923;-56
2022/10/29 01:36:50;;;;;;;;;;;;;;;12.46;100.00;100707.28;3055959;19;19915;-57
2022/10/29 01:38:04;;;;;;;;;;;;;;;12.46;100.00;100706.44;3055590;19;20342;-56
2022/10/29 01:39:05;;;;;;;;;;;;;;;12.45;100.00;100704.72;3055562;19;19915;-57
2022/10/29 01:40:16;;;;;;;;;;;;;;;12.43;100.00;100702.16;3056377;19;19980;-58
2022/10/29 01:41:23;;;;;;;;;;;;;;;12.42;100.00;100705.81;3054908;19;19922;-57
2022/10/29 01:42:29;;;;;;;;;;;;;;;12.42;100.00;100716.50;3054536;19;20329;-58
2022/10/29 01:43:32;;;;;;;;;;;;;;;12.40;100.00;100707.72;3055656;19;19924;-57
2022/10/29 01:44:39;;;;;;;;;;;;;;;12.40;100.00;100710.41;3054992;19;19949;-57
2022/10/29 01:45:52;;;;;;;;;;;;;;;12.39;100.00;100706.00;3055018;19;19926;-56
2022/10/29 01:47:00;;;;;;;;;;;;;;;12.38;100.00;100703.41;3054888;19;19923;-56
2022/10/29 01:48:06;;;;;;;;;;;;;;;12.38;100.00;100709.63;3054886;19;19991;-56
2022/10/29 01:49:12;;;;;;;;;;;;;;;12.39;100.00;100705.13;3054705;19;20319;-56
2022/10/29 01:50:15;;;;;;;;;;;;;;;12.38;100.00;100714.97;3055251;19;19943;-57
2022/10/29 01:51:23;;;;;;;;;;;;;;;12.38;100.00;100709.63;3054428;19;19927;-56
2022/10/29 01:52:25;;;;;;;;;;;;;;;12.38;100.00;100709.63;3055372;19;20369;-57
2022/10/29 01:53:29;;;;;;;;;;;;;;;12.37;100.00;100707.91;3055910;19;19957;-56
2022/10/29 01:54:31;;;;;;;;;;;;;;;12.36;100.00;100695.47;3055125;19;19950;-58
2022/10/29 01:55:36;;;;;;;;;;;;;;;12.35;100.00;100704.47;3054470;19;20448;-57
2022/10/29 01:56:37;;;;;;;;;;;;;;;12.31;100.00;100702.97;3055715;19;20276;-57
2022/10/29 01:57:42;;;;;;;;;;;;;;;12.33;100.00;100706.38;3055326;19;19919;-58
2022/10/29 01:58:45;;;;;;;;;;;;;;;12.32;100.00;100710.00;3054774;19;20418;-55
2022/10/29 01:59:50;;;;;;;;;;;;;;;12.30;100.00;100703.06;3054695;19;19922;-57
2022/10/29 02:01:18;;;;;;;;;;;;;;;12.27;100.00;100704.13;3054848;19;19940;-57
2022/10/29 02:02:41;;;;;;;;;;;;;;;12.25;100.00;100701.53;3055360;19;19919;-56
2022/10/29 02:04:10;;;;;;;;;;;;;;;12.23;100.00;100702.59;3055647;19;19922;-58
2022/10/29 02:05:31;;;;;;;;;;;;;;;12.22;100.00;100703.53;3055750;19;20323;-56
2022/10/29 02:06:38;;;;;;;;;;;;;;;12.20;100.00;100697.44;3054896;19;19935;-58
2022/10/29 02:07:40;;;;;;;;;;;;;;;12.18;100.00;100689.53;3054691;19;19918;-57
2022/10/29 02:08:57;;;;;;;;;;;;;;;12.15;100.00;100695.06;3055005;19;19926;-56
2022/10/29 02:10:17;;;;;;;;;;;;;;;12.14;100.00;100695.16;3055753;19;20282;-57
2022/10/29 02:11:40;;;;;;;;;;;;;;;12.14;100.00;100689.81;3055259;19;19915;-57
2022/10/29 02:13:00;;;;;;;;;;;;;;;12.13;100.00;100693.44;3055702;19;20336;-55
2022/10/29 02:14:06;;;;;;;;;;;;;;;12.12;100.00;100692.59;3054482;19;20434;-57
2022/10/29 02:15:18;;;;;;;;;;;;;;;12.11;100.00;100693.53;3054850;19;20262;-56
2022/10/29 02:16:23;;;;;;;;;;;;;;;12.12;100.00;100691.72;3054301;19;19937;-56
2022/10/29 02:17:24;;;;;;;;;;;;;;;12.11;100.00;100684.66;3054651;19;19926;-58
2022/10/29 02:18:29;;;;;;;;;;;;;;;12.10;100.00;100685.63;3054385;19;19935;-56
2022/10/29 02:19:31;;;;;;;;;;;;;;;12.12;100.00;100686.38;3054986;19;19978;-58
2022/10/29 02:20:36;;;;;;;;;;;;;;;12.12;100.00;100679.22;3054553;19;19935;-57
2022/10/29 02:21:41;;;;;;;;;;;;;;;12.11;100.00;100680.16;3054750;19;19945;-57
2022/10/29 02:22:45;;;;;;;;;;;;;;;12.13;100.00;100672.06;3055238;19;19941;-58
2022/10/29 02:23:50;;;;;;;;;;;;;;;12.13;100.00;100678.25;3054696;19;19945;-58
2022/10/29 02:24:54;;;;;;;;;;;;;;;12.14;100.00;100657.72;3054434;19;20350;-56
2022/10/29 02:25:56;;;;;;;;;;;;;;;12.15;100.00;100667.47;3055469;19;19922;-56
2022/10/29 02:27:01;;;;;;;;;;;;;;;12.15;100.00;100665.66;3055276;19;19941;-56
2022/10/29 02:28:03;;;;;;;;;;;;;;;12.16;100.00;100663.84;3055301;19;19919;-56
2022/10/29 02:29:07;;;;;;;;;;;;;;;12.17;100.00;100660.19;3055165;19;19945;-57
2022/10/29 02:30:09;;;;;;;;;;;;;;;12.17;100.00;100661.06;3055455;19;19923;-56
2022/10/29 02:31:13;;;;;;;;;;;;;;;12.20;100.00;100662.66;3055417;19;19922;-58
2022/10/29 02:32:15;;;;;;;;;;;;;;;12.20;100.00;100657.31;3055818;19;19945;-58
2022/10/29 02:33:20;;;;;;;;;;;;;;;12.21;100.00;100659.03;3055309;19;19954;-57
2022/10/29 02:34:22;;;;;;;;;;;;;;;12.23;100.00;100657.09;3055487;19;19919;-57
2022/10/29 02:35:26;;;;;;;;;;;;;;;12.24;100.00;100653.47;3055373;19;19918;-58
2022/10/29 02:36:28;;;;;;;;;;;;;;;12.27;100.00;100663.97;3054692;19;20341;-56
2022/10/29 02:37:32;;;;;;;;;;;;;;;12.22;100.00;100650.03;3055582;19;19948;-57
2022/10/29 02:38:34;;;;;;;;;;;;;;;12.29;100.00;100662.06;3055393;19;19922;-56
2022/10/29 02:39:38;;;;;;;;;;;;;;;12.31;100.00;100653.94;3055025;19;19945;-57
2022/10/29 02:42:06;;;;;;;;;;;;;;;12.33;100.00;100658.22;3049962;19;19935;-57
2022/10/29 02:43:08;;;;;;;;;;;;;;;12.33;100.00;100655.53;3053259;19;19989;-58
2022/10/29 02:44:12;;;;;;;;;;;;;;;12.34;100.00;100649.22;3057209;19;19923;-58
2022/10/29 02:45:14;;;;;;;;;;;;;;;12.37;100.00;100659.75;3054387;19;19919;-56
2022/10/29 02:46:19;;;;;;;;;;;;;;;12.37;100.00;100654.38;3054667;19;20381;-56
2022/10/29 02:47:21;;;;;;;;;;;;;;;12.40;100.00;100661.34;3056960;19;19946;-57
2022/10/29 02:48:25;;;;;;;;;;;;;;;12.41;100.00;100653.22;3055517;19;19981;-57
2022/10/29 02:49:27;;;;;;;;;;;;;;;12.43;100.00;100654.00;3055225;19;19926;-57
2022/10/29 02:50:32;;;;;;;;;;;;;;;12.44;100.00;100650.31;3055777;19;20016;-58
2022/10/29 02:51:33;;;;;;;;;;;;;;;12.45;100.00;100653.84;3055172;19;19934;-58
2022/10/29 02:52:38;;;;;;;;;;;;;;;12.46;100.00;100656.44;3055816;19;19943;-56
2022/10/29 02:53:39;;;;;;;;;;;;;;;12.46;100.00;100653.75;3053987;19;19919;-58
2022/10/29 02:54:44;;;;;;;;;;;;;;;12.47;100.00;100660.84;3056908;19;19919;-56
2022/10/29 02:55:46;;;;;;;;;;;;;;;12.48;100.00;100656.34;3056566;19;19933;-56
2022/10/29 02:56:50;;;;;;;;;;;;;;;12.47;100.00;100655.47;3055428;19;19926;-56
2022/10/29 02:57:52;;;;;;;;;;;;;;;12.50;100.00;100652.59;3056002;19;19923;-56
2022/10/29 02:58:57;;;;;;;;;;;;;;;12.49;100.00;100653.56;3055366;19;19922;-57
2022/10/29 02:59:59;;;;;;;;;;;;;;;12.50;100.00;100649.94;3055516;19;19948;-57
2022/10/29 03:01:03;;;;;;;;;;;;;;;12.51;100.00;100651.66;3055338;19;20760;-57
2022/10/29 03:02:05;;;;;;;;;;;;;;;12.51;100.00;100657.00;3055608;19;19915;-57
2022/10/29 03:03:10;;;;;;;;;;;;;;;12.52;100.00;100652.50;3057565;19;20019;-56
2022/10/29 03:04:12;;;;;;;;;;;;;;;12.53;100.00;100649.75;3058471;19;19922;-57
2022/10/29 03:05:17;;;;;;;;;;;;;;;12.54;100.00;100651.44;3057817;19;19926;-57
2022/10/29 03:06:19;;;;;;;;;;;;;;;12.56;100.00;100649.50;3059636;19;19926;-56
2022/10/29 03:07:23;;;;;;;;;;;;;;;12.57;100.00;100651.22;3058105;19;20231;-57
2022/10/29 03:08:25;;;;;;;;;;;;;;;12.59;100.00;100649.31;3058052;19;19915;-57
2022/10/29 03:09:30;;;;;;;;;;;;;;;12.60;100.00;100650.16;3057725;19;19922;-56
2022/10/29 03:10:31;;;;;;;;;;;;;;;12.62;100.00;100654.47;3058336;19;20286;-56
2022/10/29 03:11:36;;;;;;;;;;;;;;;12.63;100.00;100650.81;3057539;19;20334;-57
2022/10/29 03:12:37;;;;;;;;;;;;;;;12.66;100.00;100649.78;3058173;19;19923;-56
2022/10/29 03:13:42;;;;;;;;;;;;;;;12.68;100.00;100644.31;3058889;19;19911;-56
2022/10/29 03:14:51;;;;;;;;;;;;;;;12.69;100.00;100643.31;3058359;19;20341;-56
2022/10/29 03:15:55;;;;;;;;;;;;;;;12.72;100.00;100646.66;3057725;19;19947;-56
2022/10/29 03:16:57;;;;;;;;;;;;;;;12.75;100.00;100650.97;3057415;19;20243;-57
2022/10/29 03:18:02;;;;;;;;;;;;;;;12.77;100.00;100641.00;3057876;19;20338;-55
2022/10/29 03:19:03;;;;;;;;;;;;;;;12.80;100.00;100643.47;3058639;19;19943;-56
2022/10/29 03:20:08;;;;;;;;;;;;;;;12.82;100.00;100645.06;3058271;19;19959;-57
2022/10/29 03:21:10;;;;;;;;;;;;;;;12.84;100.00;100647.66;3058323;19;20320;-56
2022/10/29 03:22:14;;;;;;;;;;;;;;;12.87;100.00;100642.09;3057875;19;20432;-57
2022/10/29 03:23:16;;;;;;;;;;;;;;;12.89;100.00;100642.84;3058111;19;19923;-57
2022/10/29 03:24:20;;;;;;;;;;;;;;;12.91;100.00;100638.25;3058083;19;19918;-56
2022/10/29 03:25:22;;;;;;;;;;;;;;;12.93;100.00;100641.66;3058456;19;20349;-58
2022/10/29 03:26:26;;;;;;;;;;;;;;;12.95;100.00;100645.09;3058072;19;19918;-56
2022/10/29 03:27:28;;;;;;;;;;;;;;;12.97;100.00;100653.88;3058260;19;20035;-56
2022/10/29 03:28:32;;;;;;;;;;;;;;;12.98;100.00;100643.06;3057788;19;19922;-57
2022/10/29 03:29:34;;;;;;;;;;;;;;;13.00;100.00;100648.31;3058097;19;19927;-57
2022/10/29 03:30:39;;;;;;;;;;;;;;;13.02;100.00;100650.91;3056962;19;19918;-56
2022/10/29 03:31:42;;;;;;;;;;;;;;;13.04;100.00;100644.44;3057427;19;20006;-57
2022/10/29 03:32:46;;;;;;;;;;;;;;;13.05;100.00;100640.81;3057777;19;20027;-57
2022/10/29 03:33:49;;;;;;;;;;;;;;;13.08;100.00;100639.72;3058080;19;19929;-57
2022/10/29 03:34:54;;;;;;;;;;;;;;;13.10;100.00;100644.03;3057914;19;19934;-56
2022/10/29 03:36:01;;;;;;;;;;;;;;;13.11;100.00;100645.75;3058165;19;19930;-57
2022/10/29 03:37:05;;;;;;;;;;;;;;;13.11;100.00;100645.75;3057100;19;19927;-57
2022/10/29 03:38:07;;;;;;;;;;;;;;;13.11;100.00;100648.44;3058511;19;20055;-57
2022/10/29 03:39:11;;;;;;;;;;;;;;;13.11;100.00;100645.75;3057344;19;19923;-57
2022/10/29 03:40:13;;;;;;;;;;;;;;;13.12;100.00;100651.97;3058148;19;19919;-56
2022/10/29 03:41:18;;;;;;;;;;;;;;;13.12;100.00;100652.81;3057350;19;19919;-57
2022/10/29 03:42:19;;;;;;;;;;;;;;;13.12;100.00;100651.97;3057446;19;19927;-57
2022/10/29 03:43:24;;;;;;;;;;;;;;;13.11;100.00;100651.09;3057459;19;20000;-57
2022/10/29 03:44:26;;;;;;;;;;;;;;;13.12;100.00;100647.47;3057902;19;19939;-56
2022/10/29 03:45:30;;;;;;;;;;;;;;;13.12;100.00;100647.47;3057701;19;19915;-57
2022/10/29 03:46:32;;;;;;;;;;;;;;;13.12;100.00;100652.81;3059096;19;19918;-57
2022/10/29 03:47:37;;;;;;;;;;;;;;;13.12;100.00;100651.97;3056780;19;19972;-57
2022/10/29 03:48:39;;;;;;;;;;;;;;;13.14;100.00;100655.41;3057137;19;19922;-58
2022/10/29 03:49:43;;;;;;;;;;;;;;;13.12;100.00;100660.88;3057639;19;19937;-57
2022/10/29 03:50:52;;;;;;;;;;;;;;;13.14;100.00;100667.00;3057651;19;19919;-56
2022/10/29 03:51:57;;;;;;;;;;;;;;;13.14;100.00;100667.00;3057747;19;20058;-57
2022/10/29 03:52:59;;;;;;;;;;;;;;;13.16;100.00;100670.41;3057860;19;19959;-57
2022/10/29 03:54:03;;;;;;;;;;;;;;;13.17;100.00;100669.44;3057379;19;19959;-56
2022/10/29 03:55:05;;;;;;;;;;;;;;;13.17;100.00;100672.13;3057837;19;19930;-56
2022/10/29 03:56:10;;;;;;;;;;;;;;;13.21;100.00;100675.47;3057727;19;19930;-57
2022/10/29 03:57:12;;;;;;;;;;;;;;;13.23;100.00;100673.53;3056657;19;19950;-57
2022/10/29 03:58:17;;;;;;;;;;;;;;;13.23;100.00;100663.69;3056705;19;19979;-57
2022/10/29 03:59:18;;;;;;;;;;;;;;;13.26;100.00;100678.69;3057410;19;20330;-56
2022/10/29 04:00:23;;;;;;;;;;;;;;;13.25;100.00;100675.16;3057947;19;20338;-57
2022/10/29 04:01:25;;;;;;;;;;;;;;;13.18;100.00;100662.28;3058144;19;20255;-57
2022/10/29 04:02:29;;;;;;;;;;;;;;;13.23;100.00;100673.53;3057802;19;19991;-57
2022/10/29 04:03:32;;;;;;;;;;;;;;;13.22;100.00;100669.16;3057418;19;19938;-56
2022/10/29 04:04:36;;;;;;;;;;;;;;;13.22;100.00;100663.78;3057556;19;19931;-56
2022/10/29 04:05:38;;;;;;;;;;;;;;;13.21;100.00;100673.66;3057245;19;19947;-56
2022/10/29 04:06:42;;;;;;;;;;;;;;;13.19;100.00;100664.84;3057610;19;19927;-56
2022/10/29 04:07:44;;;;;;;;;;;;;;;13.19;100.00;100664.84;3057199;19;20621;-58
2022/10/29 04:08:48;;;;;;;;;;;;;;;13.18;100.00;100668.50;3057686;19;20330;-57
2022/10/29 04:09:50;;;;;;;;;;;;;;;13.20;100.00;100666.56;3057390;19;20307;-58
2022/10/29 04:10:56;;;;;;;;;;;;;;;13.21;100.00;100665.59;3057485;19;19923;-57
2022/10/29 04:11:58;;;;;;;;;;;;;;;13.22;100.00;100661.97;3057377;19;19929;-56
2022/10/29 04:13:02;;;;;;;;;;;;;;;13.25;100.00;100669.81;3057404;19;19982;-56
2022/10/29 04:14:04;;;;;;;;;;;;;;;13.25;100.00;100669.81;3055538;19;19931;-56
2022/10/29 04:15:08;;;;;;;;;;;;;;;13.27;100.00;100656.31;3056829;19;19943;-57
2022/10/29 04:16:10;;;;;;;;;;;;;;;13.28;100.00;100658.84;3057091;19;20338;-57
2022/10/29 04:17:15;;;;;;;;;;;;;;;13.29;100.00;100660.56;3057201;19;20231;-56
2022/10/29 04:18:16;;;;;;;;;;;;;;;13.31;100.00;100653.28;3056955;19;19919;-57
2022/10/29 04:19:21;;;;;;;;;;;;;;;13.33;100.00;100653.16;3057303;19;19919;-56
2022/10/29 04:20:22;;;;;;;;;;;;;;;13.35;100.00;100648.56;3057172;19;20352;-57
2022/10/29 04:21:47;;;;;;;;;;;;;;;13.40;100.00;100650.94;3057433;19;19935;-57
2022/10/29 04:23:11;;;;;;;;;;;;;;;13.42;100.00;100648.97;3056865;19;19923;-58
2022/10/29 04:24:34;;;;;;;;;;;;;;;13.46;100.00;100658.53;3057526;19;19938;-56
2022/10/29 04:25:59;;;;;;;;;;;;;;;13.46;100.00;100654.03;3057290;19;20452;-57
2022/10/29 04:27:20;;;;;;;;;;;;;;;13.48;100.00;100648.56;3057056;19;19934;-57
2022/10/29 04:28:45;;;;;;;;;;;;;;;13.51;100.00;100640.31;3057121;19;19922;-57
2022/10/29 04:29:48;;;;;;;;;;;;;;;13.52;100.00;100644.69;3057227;19;20369;-56
2022/10/29 04:30:53;;;;;;;;;;;;;;;13.54;100.00;100648.09;3056673;19;19923;-57
2022/10/29 04:31:55;;;;;;;;;;;;;;;13.55;100.00;100644.47;3056551;19;19915;-57
2022/10/29 04:33:02;;;;;;;;;;;;;;;13.55;100.00;100644.47;3056251;19;19926;-57
2022/10/29 04:34:05;;;;;;;;;;;;;;;13.58;100.00;100646.94;3057464;19;20228;-57
2022/10/29 04:35:09;;;;;;;;;;;;;;;13.58;100.00;100639.75;3056978;19;19919;-56
2022/10/29 04:36:11;;;;;;;;;;;;;;;13.61;100.00;100646.72;3057504;19;19926;-57
2022/10/29 04:37:15;;;;;;;;;;;;;;;13.61;100.00;100652.94;3057086;19;19915;-57
2022/10/29 04:38:17;;;;;;;;;;;;;;;13.63;100.00;100652.84;3056429;19;19932;-57
2022/10/29 04:39:21;;;;;;;;;;;;;;;13.66;100.00;100652.59;3057157;19;19918;-58
2022/10/29 04:40:24;;;;;;;;;;;;;;;13.68;100.00;100656.88;3057618;19;19934;-58
2022/10/29 04:41:28;;;;;;;;;;;;;;;13.72;100.00;100654.84;3055454;19;19950;-57
2022/10/29 04:42:37;;;;;;;;;;;;;;;13.74;100.00;100666.34;3056604;19;19986;-57
2022/10/29 04:43:41;;;;;;;;;;;;;;;13.76;100.00;100660.84;3056912;19;20358;-57
2022/10/29 04:44:43;;;;;;;;;;;;;;;13.79;100.00;100668.66;3057217;19;19930;-57
2022/10/29 04:45:52;;;;;;;;;;;;;;;13.80;100.00;100660.50;3056621;19;19919;-58
2022/10/29 04:46:54;;;;;;;;;;;;;;;13.83;100.00;100664.78;3057033;19;20246;-56
2022/10/29 04:48:02;;;;;;;;;;;;;;;13.86;100.00;100665.44;3056818;19;19926;-56
2022/10/29 04:49:04;;;;;;;;;;;;;;;13.88;100.00;100663.50;3058154;19;19986;-57
2022/10/29 04:50:08;;;;;;;;;;;;;;;13.90;100.00;100658.88;3056264;19;19922;-57
2022/10/29 04:51:17;;;;;;;;;;;;;;;13.92;100.00;100648.88;3057009;19;19922;-57
2022/10/29 04:52:22;;;;;;;;;;;;;;;13.95;100.00;100664.78;3056809;19;20275;-57
2022/10/29 04:53:24;;;;;;;;;;;;;;;13.98;100.00;100661.88;3057083;19;19951;-57
2022/10/29 04:54:28;;;;;;;;;;;;;;;13.98;100.00;100659.19;3056745;19;19947;-56
2022/10/29 04:55:30;;;;;;;;;;;;;;;14.00;100.00;100659.94;3057270;19;20329;-57
2022/10/29 04:56:34;;;;;;;;;;;;;;;14.02;100.00;100657.97;3056083;19;19927;-57
2022/10/29 04:57:36;;;;;;;;;;;;;;;14.04;100.00;100669.47;3056409;19;20011;-57
2022/10/29 04:58:40;;;;;;;;;;;;;;;14.03;100.00;100654.31;3056398;19;19944;-57
2022/10/29 04:59:42;;;;;;;;;;;;;;;14.04;100.00;100661.41;3056900;19;19933;-57
2022/10/29 05:00:47;;;;;;;;;;;;;;;14.04;100.00;100664.09;3057023;19;19931;-58
2022/10/29 05:01:49;;;;;;;;;;;;;;;14.04;100.00;100664.09;3056841;19;19923;-58
2022/10/29 05:02:54;;;;;;;;;;;;;;;14.05;100.00;100673.84;3056418;19;19929;-58
2022/10/29 05:03:56;;;;;;;;;;;;;;;14.05;100.00;100675.69;3057217;19;19943;-57
2022/10/29 05:05:03;;;;;;;;;;;;;;;14.06;100.00;100677.41;3056773;19;19923;-57
2022/10/29 05:06:05;;;;;;;;;;;;;;;14.07;100.00;100671.94;3056758;19;20356;-57
2022/10/29 05:07:10;;;;;;;;;;;;;;;14.09;100.00;100681.69;3056926;19;19919;-57
2022/10/29 05:08:12;;;;;;;;;;;;;;;14.10;100.00;100683.41;3056388;19;19929;-57
2022/10/29 05:09:16;;;;;;;;;;;;;;;14.12;100.00;100676.09;3058158;19;20229;-57
2022/10/29 05:10:18;;;;;;;;;;;;;;;14.15;100.00;100683.91;3056463;19;19919;-58
2022/10/29 05:11:22;;;;;;;;;;;;;;;14.16;100.00;100688.31;3056801;19;20363;-57
2022/10/29 05:12:24;;;;;;;;;;;;;;;14.16;100.00;100691.84;3056440;19;19958;-57
2022/10/29 05:13:28;;;;;;;;;;;;;;;14.21;100.00;100696.91;3056695;19;19930;-57
2022/10/29 05:14:30;;;;;;;;;;;;;;;14.24;100.00;100702.06;3056460;19;19938;-57
2022/10/29 05:15:35;;;;;;;;;;;;;;;14.27;100.00;100696.44;3056639;19;19986;-57
2022/10/29 05:16:37;;;;;;;;;;;;;;;14.29;100.00;100683.75;3056185;19;19922;-57
2022/10/29 05:17:41;;;;;;;;;;;;;;;14.31;100.00;100682.69;3056398;19;19922;-57
2022/10/29 05:18:43;;;;;;;;;;;;;;;14.34;100.00;100695.03;3055786;19;19926;-57
2022/10/29 05:19:47;;;;;;;;;;;;;;;14.35;100.00;100704.81;3056706;19;19931;-57
2022/10/29 05:20:55;;;;;;;;;;;;;;;14.36;100.00;100695.78;3056373;19;19923;-56
2022/10/29 05:22:00;;;;;;;;;;;;;;;14.38;100.00;100709.91;3056415;19;19930;-57
2022/10/29 05:23:05;;;;;;;;;;;;;;;14.39;100.00;100707.16;3056340;19;19919;-57
2022/10/29 05:24:10;;;;;;;;;;;;;;;14.42;100.00;100722.19;3056596;19;19950;-57
2022/10/29 05:25:12;;;;;;;;;;;;;;;14.42;100.00;100727.56;3056104;19;19918;-58
2022/10/29 05:26:16;;;;;;;;;;;;;;;14.42;100.00;100722.19;3056355;19;19919;-57
2022/10/29 05:27:18;;;;;;;;;;;;;;;14.44;100.00;100714.03;3056283;19;19927;-57
2022/10/29 05:28:23;;;;;;;;;;;;;;;14.45;100.00;100716.59;3056405;19;19919;-57
2022/10/29 05:29:25;;;;;;;;;;;;;;;14.46;100.00;100712.94;3056483;19;19923;-57
2022/10/29 05:30:29;;;;;;;;;;;;;;;14.46;100.00;100723.69;3056601;19;19950;-57
2022/10/29 05:31:31;;;;;;;;;;;;;;;14.46;100.00;100712.94;3056973;19;19921;-58
2022/10/29 05:32:36;;;;;;;;;;;;;;;14.46;100.00;100712.09;3056333;19;19923;-57